sensor_id;sensor_type;location;lat;lon;timestamp;P1;durP1;ratioP1;P2;durP2;ratioP2
22628;SDS011;11481;53.694;9.910;2023-11-21T00:01:03;23.75;;;13.23;;
22628;SDS011;11481;53.694;9.910;2023-11-21T00:03:31;24.50;;;13.90;;
22628;SDS011;11481;53.694;9.910;2023-11-21T00:05:58;26.23;;;14.40;;
22628;SDS011;11481;53.694;9.910;2023-11-21T00:08:24;23.23;;;13.70;;
22628;SDS011;11481;53.694;9.910;2023-11-21T00:10:51;28.27;;;14.20;;
22628;SDS011;11481;53.694;9.910;2023-11-21T00:13:18;24.35;;;13.45;;
22628;SDS011;11481;53.694;9.910;2023-11-21T00:15:44;21.70;;;12.80;;
22628;SDS011;11481;53.694;9.910;2023-11-21T00:18:11;21.85;;;12.65;;
22628;SDS011;11481;53.694;9.910;2023-11-21T00:20:38;26.63;;;12.80;;
22628;SDS011;11481;53.694;9.910;2023-11-21T00:23:04;21.27;;;13.10;;
22628;SDS011;11481;53.694;9.910;2023-11-21T00:25:31;21.73;;;11.80;;
22628;SDS011;11481;53.694;9.910;2023-11-21T00:27:58;24.67;;;13.40;;
22628;SDS011;11481;53.694;9.910;2023-11-21T00:30:27;25.60;;;13.38;;
22628;SDS011;11481;53.694;9.910;2023-11-21T00:32:55;28.52;;;12.75;;
22628;SDS011;11481;53.694;9.910;2023-11-21T00:35:21;24.00;;;14.05;;
22628;SDS011;11481;53.694;9.910;2023-11-21T00:37:48;23.60;;;11.40;;
22628;SDS011;11481;53.694;9.910;2023-11-21T00:40:16;21.40;;;11.40;;
22628;SDS011;11481;53.694;9.910;2023-11-21T00:42:45;20.40;;;10.93;;
22628;SDS011;11481;53.694;9.910;2023-11-21T00:45:12;20.85;;;11.38;;
22628;SDS011;11481;53.694;9.910;2023-11-21T00:47:39;16.27;;;10.70;;
22628;SDS011;11481;53.694;9.910;2023-11-21T00:50:06;22.98;;;12.45;;
22628;SDS011;11481;53.694;9.910;2023-11-21T00:52:33;18.35;;;11.77;;
22628;SDS011;11481;53.694;9.910;2023-11-21T00:55:00;18.40;;;11.13;;
22628;SDS011;11481;53.694;9.910;2023-11-21T00:57:26;23.40;;;11.32;;
22628;SDS011;11481;53.694;9.910;2023-11-21T00:59:53;19.77;;;11.23;;
22628;SDS011;11481;53.694;9.910;2023-11-21T01:02:20;24.35;;;13.10;;
22628;SDS011;11481;53.694;9.910;2023-11-21T01:04:47;25.13;;;12.80;;
22628;SDS011;11481;53.694;9.910;2023-11-21T01:07:14;20.35;;;13.13;;
22628;SDS011;11481;53.694;9.910;2023-11-21T01:09:41;23.83;;;14.73;;
22628;SDS011;11481;53.694;9.910;2023-11-21T01:12:07;21.58;;;13.07;;
22628;SDS011;11481;53.694;9.910;2023-11-21T01:14:34;25.98;;;13.63;;
22628;SDS011;11481;53.694;9.910;2023-11-21T01:17:02;23.95;;;13.50;;
22628;SDS011;11481;53.694;9.910;2023-11-21T01:19:31;23.88;;;13.07;;
22628;SDS011;11481;53.694;9.910;2023-11-21T01:21:58;21.85;;;11.95;;
22628;SDS011;11481;53.694;9.910;2023-11-21T01:24:24;25.38;;;13.38;;
22628;SDS011;11481;53.694;9.910;2023-11-21T01:26:51;23.88;;;13.18;;
22628;SDS011;11481;53.694;9.910;2023-11-21T01:29:18;21.48;;;12.40;;
22628;SDS011;11481;53.694;9.910;2023-11-21T01:31:44;18.00;;;11.48;;
22628;SDS011;11481;53.694;9.910;2023-11-21T01:34:11;20.70;;;11.85;;
22628;SDS011;11481;53.694;9.910;2023-11-21T01:36:38;21.83;;;11.75;;
22628;SDS011;11481;53.694;9.910;2023-11-21T01:39:04;22.15;;;11.48;;
22628;SDS011;11481;53.694;9.910;2023-11-21T01:41:34;16.85;;;9.68;;
22628;SDS011;11481;53.694;9.910;2023-11-21T01:44:01;16.25;;;10.23;;
22628;SDS011;11481;53.694;9.910;2023-11-21T01:46:28;19.73;;;10.50;;
22628;SDS011;11481;53.694;9.910;2023-11-21T01:48:55;17.40;;;10.10;;
22628;SDS011;11481;53.694;9.910;2023-11-21T01:51:22;18.88;;;9.48;;
22628;SDS011;11481;53.694;9.910;2023-11-21T01:53:49;16.13;;;9.15;;
22628;SDS011;11481;53.694;9.910;2023-11-21T01:56:16;15.93;;;9.52;;
22628;SDS011;11481;53.694;9.910;2023-11-21T01:58:43;17.92;;;10.05;;
22628;SDS011;11481;53.694;9.910;2023-11-21T02:01:10;20.63;;;9.63;;
22628;SDS011;11481;53.694;9.910;2023-11-21T02:03:37;15.63;;;9.40;;
22628;SDS011;11481;53.694;9.910;2023-11-21T02:06:04;15.25;;;8.73;;
22628;SDS011;11481;53.694;9.910;2023-11-21T02:08:31;15.00;;;7.95;;
22628;SDS011;11481;53.694;9.910;2023-11-21T02:10:58;12.35;;;7.80;;
22628;SDS011;11481;53.694;9.910;2023-11-21T02:13:24;13.80;;;7.72;;
22628;SDS011;11481;53.694;9.910;2023-11-21T02:15:51;13.80;;;8.13;;
22628;SDS011;11481;53.694;9.910;2023-11-21T02:18:20;17.45;;;8.40;;
22628;SDS011;11481;53.694;9.910;2023-11-21T02:20:48;15.32;;;7.20;;
22628;SDS011;11481;53.694;9.910;2023-11-21T02:23:15;13.48;;;7.50;;
22628;SDS011;11481;53.694;9.910;2023-11-21T02:25:41;12.90;;;7.90;;
22628;SDS011;11481;53.694;9.910;2023-11-21T02:28:09;12.90;;;7.10;;
22628;SDS011;11481;53.694;9.910;2023-11-21T02:30:38;11.68;;;7.32;;
22628;SDS011;11481;53.694;9.910;2023-11-21T02:33:05;15.40;;;7.10;;
22628;SDS011;11481;53.694;9.910;2023-11-21T02:35:33;13.93;;;7.20;;
22628;SDS011;11481;53.694;9.910;2023-11-21T02:38:01;11.82;;;7.15;;
22628;SDS011;11481;53.694;9.910;2023-11-21T02:40:28;11.75;;;7.22;;
22628;SDS011;11481;53.694;9.910;2023-11-21T02:42:56;11.68;;;7.55;;
22628;SDS011;11481;53.694;9.910;2023-11-21T02:45:25;11.75;;;7.53;;
22628;SDS011;11481;53.694;9.910;2023-11-21T02:47:52;11.63;;;6.95;;
22628;SDS011;11481;53.694;9.910;2023-11-21T02:50:23;11.13;;;6.63;;
22628;SDS011;11481;53.694;9.910;2023-11-21T02:52:50;11.85;;;7.05;;
22628;SDS011;11481;53.694;9.910;2023-11-21T02:55:17;11.75;;;7.32;;
22628;SDS011;11481;53.694;9.910;2023-11-21T02:57:44;12.95;;;7.70;;
22628;SDS011;11481;53.694;9.910;2023-11-21T03:00:11;13.40;;;7.88;;
22628;SDS011;11481;53.694;9.910;2023-11-21T03:02:39;14.40;;;7.32;;
22628;SDS011;11481;53.694;9.910;2023-11-21T03:05:07;12.85;;;8.02;;
22628;SDS011;11481;53.694;9.910;2023-11-21T03:07:37;10.88;;;7.47;;
22628;SDS011;11481;53.694;9.910;2023-11-21T03:10:05;12.93;;;7.80;;
22628;SDS011;11481;53.694;9.910;2023-11-21T03:12:37;12.32;;;7.93;;
22628;SDS011;11481;53.694;9.910;2023-11-21T03:15:05;12.07;;;8.07;;
22628;SDS011;11481;53.694;9.910;2023-11-21T03:17:32;14.23;;;8.27;;
22628;SDS011;11481;53.694;9.910;2023-11-21T03:20:02;13.82;;;9.40;;
22628;SDS011;11481;53.694;9.910;2023-11-21T03:22:30;14.93;;;9.20;;
22628;SDS011;11481;53.694;9.910;2023-11-21T03:24:57;13.77;;;8.70;;
22628;SDS011;11481;53.694;9.910;2023-11-21T03:27:24;16.00;;;9.00;;
22628;SDS011;11481;53.694;9.910;2023-11-21T03:29:51;16.60;;;8.60;;
22628;SDS011;11481;53.694;9.910;2023-11-21T03:32:18;13.45;;;8.18;;
22628;SDS011;11481;53.694;9.910;2023-11-21T03:34:54;14.02;;;8.77;;
22628;SDS011;11481;53.694;9.910;2023-11-21T03:37:23;14.18;;;7.75;;
22628;SDS011;11481;53.694;9.910;2023-11-21T03:39:51;12.68;;;7.78;;
22628;SDS011;11481;53.694;9.910;2023-11-21T03:42:17;14.48;;;7.70;;
22628;SDS011;11481;53.694;9.910;2023-11-21T03:44:44;14.85;;;7.47;;
22628;SDS011;11481;53.694;9.910;2023-11-21T03:47:11;14.70;;;7.75;;
22628;SDS011;11481;53.694;9.910;2023-11-21T03:49:38;12.23;;;7.70;;
22628;SDS011;11481;53.694;9.910;2023-11-21T03:52:05;13.90;;;7.90;;
22628;SDS011;11481;53.694;9.910;2023-11-21T03:54:31;14.40;;;7.63;;
22628;SDS011;11481;53.694;9.910;2023-11-21T03:56:58;12.50;;;7.38;;
22628;SDS011;11481;53.694;9.910;2023-11-21T03:59:25;13.95;;;8.55;;
22628;SDS011;11481;53.694;9.910;2023-11-21T04:01:51;14.30;;;7.53;;
22628;SDS011;11481;53.694;9.910;2023-11-21T04:04:21;12.10;;;7.18;;
22628;SDS011;11481;53.694;9.910;2023-11-21T04:06:47;12.07;;;7.82;;
22628;SDS011;11481;53.694;9.910;2023-11-21T04:09:14;14.05;;;7.35;;
22628;SDS011;11481;53.694;9.910;2023-11-21T04:11:41;12.20;;;6.78;;
22628;SDS011;11481;53.694;9.910;2023-11-21T04:14:08;14.05;;;7.95;;
22628;SDS011;11481;53.694;9.910;2023-11-21T04:16:35;11.00;;;6.53;;
22628;SDS011;11481;53.694;9.910;2023-11-21T04:19:02;12.60;;;7.03;;
22628;SDS011;11481;53.694;9.910;2023-11-21T04:21:28;12.52;;;7.20;;
22628;SDS011;11481;53.694;9.910;2023-11-21T04:23:55;13.90;;;7.40;;
22628;SDS011;11481;53.694;9.910;2023-11-21T04:26:22;12.98;;;7.03;;
22628;SDS011;11481;53.694;9.910;2023-11-21T04:28:48;13.52;;;7.53;;
22628;SDS011;11481;53.694;9.910;2023-11-21T04:31:16;13.10;;;7.35;;
22628;SDS011;11481;53.694;9.910;2023-11-21T04:33:42;11.50;;;7.45;;
22628;SDS011;11481;53.694;9.910;2023-11-21T04:36:11;13.88;;;7.93;;
22628;SDS011;11481;53.694;9.910;2023-11-21T04:38:37;12.13;;;7.88;;
22628;SDS011;11481;53.694;9.910;2023-11-21T04:41:04;12.73;;;8.18;;
22628;SDS011;11481;53.694;9.910;2023-11-21T04:43:31;13.80;;;7.88;;
22628;SDS011;11481;53.694;9.910;2023-11-21T04:45:57;11.48;;;7.75;;
22628;SDS011;11481;53.694;9.910;2023-11-21T04:48:24;14.43;;;7.70;;
22628;SDS011;11481;53.694;9.910;2023-11-21T04:50:51;13.52;;;6.90;;
22628;SDS011;11481;53.694;9.910;2023-11-21T04:53:17;11.88;;;7.00;;
22628;SDS011;11481;53.694;9.910;2023-11-21T04:55:44;11.88;;;6.80;;
22628;SDS011;11481;53.694;9.910;2023-11-21T04:58:12;11.48;;;6.72;;
22628;SDS011;11481;53.694;9.910;2023-11-21T05:00:38;11.10;;;6.88;;
22628;SDS011;11481;53.694;9.910;2023-11-21T05:03:06;11.88;;;6.47;;
22628;SDS011;11481;53.694;9.910;2023-11-21T05:05:33;10.73;;;6.63;;
22628;SDS011;11481;53.694;9.910;2023-11-21T05:08:00;11.40;;;6.97;;
22628;SDS011;11481;53.694;9.910;2023-11-21T05:10:27;11.40;;;6.55;;
22628;SDS011;11481;53.694;9.910;2023-11-21T05:12:55;12.38;;;6.97;;
22628;SDS011;11481;53.694;9.910;2023-11-21T05:15:22;14.00;;;7.03;;
22628;SDS011;11481;53.694;9.910;2023-11-21T05:17:49;11.77;;;7.35;;
22628;SDS011;11481;53.694;9.910;2023-11-21T05:20:18;11.35;;;7.00;;
22628;SDS011;11481;53.694;9.910;2023-11-21T05:22:49;11.15;;;6.90;;
22628;SDS011;11481;53.694;9.910;2023-11-21T05:25:16;15.38;;;7.53;;
22628;SDS011;11481;53.694;9.910;2023-11-21T05:27:46;12.35;;;7.65;;
22628;SDS011;11481;53.694;9.910;2023-11-21T05:30:13;11.32;;;6.63;;
22628;SDS011;11481;53.694;9.910;2023-11-21T05:32:41;11.68;;;7.32;;
22628;SDS011;11481;53.694;9.910;2023-11-21T05:35:10;12.65;;;7.72;;
22628;SDS011;11481;53.694;9.910;2023-11-21T05:37:43;11.15;;;7.35;;
22628;SDS011;11481;53.694;9.910;2023-11-21T05:40:11;11.70;;;7.07;;
22628;SDS011;11481;53.694;9.910;2023-11-21T05:42:39;11.38;;;7.10;;
22628;SDS011;11481;53.694;9.910;2023-11-21T05:45:07;9.57;;;6.35;;
22628;SDS011;11481;53.694;9.910;2023-11-21T05:47:43;12.52;;;7.28;;
22628;SDS011;11481;53.694;9.910;2023-11-21T05:50:13;10.95;;;7.00;;
22628;SDS011;11481;53.694;9.910;2023-11-21T05:52:42;11.32;;;7.32;;
22628;SDS011;11481;53.694;9.910;2023-11-21T05:55:12;10.45;;;7.05;;
22628;SDS011;11481;53.694;9.910;2023-11-21T05:57:40;14.63;;;7.25;;
22628;SDS011;11481;53.694;9.910;2023-11-21T06:00:08;10.75;;;6.85;;
22628;SDS011;11481;53.694;9.910;2023-11-21T06:02:41;12.38;;;6.85;;
22628;SDS011;11481;53.694;9.910;2023-11-21T06:05:08;13.02;;;7.95;;
22628;SDS011;11481;53.694;9.910;2023-11-21T06:07:36;14.30;;;8.30;;
22628;SDS011;11481;53.694;9.910;2023-11-21T06:10:04;12.38;;;8.43;;
22628;SDS011;11481;53.694;9.910;2023-11-21T06:12:33;11.75;;;6.72;;
22628;SDS011;11481;53.694;9.910;2023-11-21T06:15:02;14.73;;;7.07;;
22628;SDS011;11481;53.694;9.910;2023-11-21T06:17:31;13.60;;;6.90;;
22628;SDS011;11481;53.694;9.910;2023-11-21T06:19:58;11.80;;;6.85;;
22628;SDS011;11481;53.694;9.910;2023-11-21T06:22:25;9.85;;;6.15;;
22628;SDS011;11481;53.694;9.910;2023-11-21T06:24:51;13.35;;;6.63;;
22628;SDS011;11481;53.694;9.910;2023-11-21T06:27:18;9.18;;;6.40;;
22628;SDS011;11481;53.694;9.910;2023-11-21T06:29:45;14.52;;;7.20;;
22628;SDS011;11481;53.694;9.910;2023-11-21T06:32:12;9.98;;;6.55;;
22628;SDS011;11481;53.694;9.910;2023-11-21T06:34:39;10.80;;;6.45;;
22628;SDS011;11481;53.694;9.910;2023-11-21T06:37:05;10.00;;;6.50;;
22628;SDS011;11481;53.694;9.910;2023-11-21T06:39:32;11.90;;;6.82;;
22628;SDS011;11481;53.694;9.910;2023-11-21T06:41:59;11.88;;;6.72;;
22628;SDS011;11481;53.694;9.910;2023-11-21T06:44:26;11.55;;;6.65;;
22628;SDS011;11481;53.694;9.910;2023-11-21T06:46:53;14.27;;;7.22;;
22628;SDS011;11481;53.694;9.910;2023-11-21T06:49:19;12.18;;;7.57;;
22628;SDS011;11481;53.694;9.910;2023-11-21T06:51:46;9.25;;;6.25;;
22628;SDS011;11481;53.694;9.910;2023-11-21T06:54:13;12.15;;;6.53;;
22628;SDS011;11481;53.694;9.910;2023-11-21T06:56:40;13.60;;;6.43;;
22628;SDS011;11481;53.694;9.910;2023-11-21T06:59:07;10.35;;;6.75;;
22628;SDS011;11481;53.694;9.910;2023-11-21T07:01:35;12.75;;;7.65;;
22628;SDS011;11481;53.694;9.910;2023-11-21T07:04:05;11.98;;;7.93;;
22628;SDS011;11481;53.694;9.910;2023-11-21T07:06:33;13.40;;;7.78;;
22628;SDS011;11481;53.694;9.910;2023-11-21T07:08:59;13.68;;;7.78;;
22628;SDS011;11481;53.694;9.910;2023-11-21T07:11:27;12.48;;;7.60;;
22628;SDS011;11481;53.694;9.910;2023-11-21T07:13:54;13.27;;;7.63;;
22628;SDS011;11481;53.694;9.910;2023-11-21T07:16:20;16.58;;;8.98;;
22628;SDS011;11481;53.694;9.910;2023-11-21T07:18:48;15.48;;;7.93;;
22628;SDS011;11481;53.694;9.910;2023-11-21T07:21:15;15.45;;;9.00;;
22628;SDS011;11481;53.694;9.910;2023-11-21T07:23:42;14.98;;;7.70;;
22628;SDS011;11481;53.694;9.910;2023-11-21T07:26:09;12.77;;;7.82;;
22628;SDS011;11481;53.694;9.910;2023-11-21T07:28:36;14.68;;;8.70;;
22628;SDS011;11481;53.694;9.910;2023-11-21T07:31:03;11.73;;;7.30;;
22628;SDS011;11481;53.694;9.910;2023-11-21T07:33:30;12.43;;;7.93;;
22628;SDS011;11481;53.694;9.910;2023-11-21T07:35:57;15.35;;;7.53;;
22628;SDS011;11481;53.694;9.910;2023-11-21T07:38:24;15.70;;;8.13;;
22628;SDS011;11481;53.694;9.910;2023-11-21T07:40:50;13.15;;;6.88;;
22628;SDS011;11481;53.694;9.910;2023-11-21T07:43:17;12.85;;;7.20;;
22628;SDS011;11481;53.694;9.910;2023-11-21T07:45:45;12.88;;;7.53;;
22628;SDS011;11481;53.694;9.910;2023-11-21T07:48:12;14.45;;;7.85;;
22628;SDS011;11481;53.694;9.910;2023-11-21T07:50:39;11.80;;;6.57;;
22628;SDS011;11481;53.694;9.910;2023-11-21T07:53:06;14.65;;;6.82;;
22628;SDS011;11481;53.694;9.910;2023-11-21T07:55:32;11.38;;;6.82;;
22628;SDS011;11481;53.694;9.910;2023-11-21T07:57:59;11.10;;;6.80;;
22628;SDS011;11481;53.694;9.910;2023-11-21T08:00:26;11.48;;;7.25;;
22628;SDS011;11481;53.694;9.910;2023-11-21T08:02:56;13.23;;;7.50;;
22628;SDS011;11481;53.694;9.910;2023-11-21T08:05:23;13.00;;;6.43;;
22628;SDS011;11481;53.694;9.910;2023-11-21T08:07:57;10.05;;;6.32;;
22628;SDS011;11481;53.694;9.910;2023-11-21T08:10:24;13.88;;;7.00;;
22628;SDS011;11481;53.694;9.910;2023-11-21T08:12:51;11.38;;;7.10;;
22628;SDS011;11481;53.694;9.910;2023-11-21T08:15:18;10.93;;;6.45;;
22628;SDS011;11481;53.694;9.910;2023-11-21T08:17:46;11.98;;;6.28;;
22628;SDS011;11481;53.694;9.910;2023-11-21T08:20:13;10.70;;;5.97;;
22628;SDS011;11481;53.694;9.910;2023-11-21T08:22:43;9.07;;;5.20;;
22628;SDS011;11481;53.694;9.910;2023-11-21T08:25:10;7.38;;;5.00;;
22628;SDS011;11481;53.694;9.910;2023-11-21T08:27:37;12.45;;;5.35;;
22628;SDS011;11481;53.694;9.910;2023-11-21T08:30:05;9.15;;;5.32;;
22628;SDS011;11481;53.694;9.910;2023-11-21T08:32:33;9.52;;;5.53;;
22628;SDS011;11481;53.694;9.910;2023-11-21T08:35:00;9.15;;;5.20;;
22628;SDS011;11481;53.694;9.910;2023-11-21T08:37:28;7.90;;;4.88;;
22628;SDS011;11481;53.694;9.910;2023-11-21T08:39:57;10.27;;;5.32;;
22628;SDS011;11481;53.694;9.910;2023-11-21T08:42:25;11.35;;;5.20;;
22628;SDS011;11481;53.694;9.910;2023-11-21T08:44:57;11.77;;;5.05;;
22628;SDS011;11481;53.694;9.910;2023-11-21T08:47:26;10.50;;;5.20;;
22628;SDS011;11481;53.694;9.910;2023-11-21T08:49:53;9.43;;;4.30;;
22628;SDS011;11481;53.694;9.910;2023-11-21T08:52:21;7.38;;;4.88;;
22628;SDS011;11481;53.694;9.910;2023-11-21T08:54:50;6.10;;;4.15;;
22628;SDS011;11481;53.694;9.910;2023-11-21T08:57:22;9.70;;;4.65;;
22628;SDS011;11481;53.694;9.910;2023-11-21T08:59:49;12.20;;;5.15;;
22628;SDS011;11481;53.694;9.910;2023-11-21T09:02:21;7.55;;;4.32;;
22628;SDS011;11481;53.694;9.910;2023-11-21T09:04:49;6.28;;;4.35;;
22628;SDS011;11481;53.694;9.910;2023-11-21T09:07:19;6.88;;;4.47;;
22628;SDS011;11481;53.694;9.910;2023-11-21T09:09:48;7.85;;;4.57;;
22628;SDS011;11481;53.694;9.910;2023-11-21T09:12:15;7.30;;;4.07;;
22628;SDS011;11481;53.694;9.910;2023-11-21T09:14:43;8.00;;;4.20;;
22628;SDS011;11481;53.694;9.910;2023-11-21T09:17:10;6.80;;;3.97;;
22628;SDS011;11481;53.694;9.910;2023-11-21T09:19:38;7.57;;;4.22;;
22628;SDS011;11481;53.694;9.910;2023-11-21T09:22:04;6.07;;;3.63;;
22628;SDS011;11481;53.694;9.910;2023-11-21T09:24:31;7.70;;;4.25;;
22628;SDS011;11481;53.694;9.910;2023-11-21T09:26:59;9.55;;;4.57;;
22628;SDS011;11481;53.694;9.910;2023-11-21T09:29:27;9.38;;;4.15;;
22628;SDS011;11481;53.694;9.910;2023-11-21T09:31:53;6.93;;;3.83;;
22628;SDS011;11481;53.694;9.910;2023-11-21T09:34:21;7.25;;;4.32;;
22628;SDS011;11481;53.694;9.910;2023-11-21T09:36:48;8.48;;;4.25;;
22628;SDS011;11481;53.694;9.910;2023-11-21T09:39:15;6.65;;;4.25;;
22628;SDS011;11481;53.694;9.910;2023-11-21T09:41:50;5.85;;;3.92;;
22628;SDS011;11481;53.694;9.910;2023-11-21T09:44:44;5.47;;;3.70;;
22628;SDS011;11481;53.694;9.910;2023-11-21T09:47:25;8.32;;;3.85;;
22628;SDS011;11481;53.694;9.910;2023-11-21T09:49:51;6.90;;;3.97;;
22628;SDS011;11481;53.694;9.910;2023-11-21T09:52:26;6.13;;;4.25;;
22628;SDS011;11481;53.694;9.910;2023-11-21T09:54:54;6.53;;;3.80;;
22628;SDS011;11481;53.694;9.910;2023-11-21T09:57:25;7.80;;;3.47;;
22628;SDS011;11481;53.694;9.910;2023-11-21T09:59:53;8.85;;;3.83;;
22628;SDS011;11481;53.694;9.910;2023-11-21T10:02:27;7.25;;;3.70;;
22628;SDS011;11481;53.694;9.910;2023-11-21T10:04:58;5.78;;;2.50;;
22628;SDS011;11481;53.694;9.910;2023-11-21T10:07:26;3.60;;;2.70;;
22628;SDS011;11481;53.694;9.910;2023-11-21T10:09:54;3.90;;;2.47;;
22628;SDS011;11481;53.694;9.910;2023-11-21T10:12:22;4.30;;;2.20;;
22628;SDS011;11481;53.694;9.910;2023-11-21T10:14:52;3.50;;;2.00;;
22628;SDS011;11481;53.694;9.910;2023-11-21T10:17:24;3.25;;;2.00;;
22628;SDS011;11481;53.694;9.910;2023-11-21T10:19:53;2.72;;;1.70;;
22628;SDS011;11481;53.694;9.910;2023-11-21T10:22:22;2.97;;;1.90;;
22628;SDS011;11481;53.694;9.910;2023-11-21T10:24:50;4.40;;;2.00;;
22628;SDS011;11481;53.694;9.910;2023-11-21T10:27:19;4.53;;;1.80;;
22628;SDS011;11481;53.694;9.910;2023-11-21T10:29:46;3.47;;;2.00;;
22628;SDS011;11481;53.694;9.910;2023-11-21T10:32:13;2.78;;;1.75;;
22628;SDS011;11481;53.694;9.910;2023-11-21T10:34:39;3.15;;;1.85;;
22628;SDS011;11481;53.694;9.910;2023-11-21T10:37:11;5.30;;;3.00;;
22628;SDS011;11481;53.694;9.910;2023-11-21T10:39:38;3.85;;;1.90;;
22628;SDS011;11481;53.694;9.910;2023-11-21T10:42:07;3.20;;;2.00;;
22628;SDS011;11481;53.694;9.910;2023-11-21T10:44:34;3.65;;;1.88;;
22628;SDS011;11481;53.694;9.910;2023-11-21T10:47:01;5.55;;;1.90;;
22628;SDS011;11481;53.694;9.910;2023-11-21T10:49:29;3.75;;;2.15;;
22628;SDS011;11481;53.694;9.910;2023-11-21T10:51:56;4.65;;;1.90;;
22628;SDS011;11481;53.694;9.910;2023-11-21T10:54:24;3.00;;;2.10;;
22628;SDS011;11481;53.694;9.910;2023-11-21T10:56:58;3.10;;;2.10;;
22628;SDS011;11481;53.694;9.910;2023-11-21T10:59:28;9.82;;;2.72;;
22628;SDS011;11481;53.694;9.910;2023-11-21T11:01:59;3.67;;;2.22;;
22628;SDS011;11481;53.694;9.910;2023-11-21T11:04:32;4.95;;;2.67;;
22628;SDS011;11481;53.694;9.910;2023-11-21T11:07:03;5.57;;;2.83;;
22628;SDS011;11481;53.694;9.910;2023-11-21T11:09:35;6.13;;;2.95;;
22628;SDS011;11481;53.694;9.910;2023-11-21T11:12:02;4.78;;;3.03;;
22628;SDS011;11481;53.694;9.910;2023-11-21T11:14:31;5.97;;;2.60;;
22628;SDS011;11481;53.694;9.910;2023-11-21T11:16:58;4.30;;;2.90;;
22628;SDS011;11481;53.694;9.910;2023-11-21T11:19:28;5.00;;;2.83;;
22628;SDS011;11481;53.694;9.910;2023-11-21T11:24:33;6.30;;;3.30;;
22628;SDS011;11481;53.694;9.910;2023-11-21T11:32:58;6.85;;;2.83;;
22628;SDS011;11481;53.694;9.910;2023-11-21T11:35:34;4.70;;;2.28;;
22628;SDS011;11481;53.694;9.910;2023-11-21T11:38:04;2.97;;;2.05;;
22628;SDS011;11481;53.694;9.910;2023-11-21T11:40:41;4.55;;;2.45;;
22628;SDS011;11481;53.694;9.910;2023-11-21T11:43:12;3.63;;;2.05;;
22628;SDS011;11481;53.694;9.910;2023-11-21T11:45:38;3.30;;;1.98;;
22628;SDS011;11481;53.694;9.910;2023-11-21T11:48:08;4.07;;;2.20;;
22628;SDS011;11481;53.694;9.910;2023-11-21T11:53:35;4.00;;;2.22;;
22628;SDS011;11481;53.694;9.910;2023-11-21T11:58:54;2.80;;;1.88;;
22628;SDS011;11481;53.694;9.910;2023-11-21T12:01:24;3.53;;;2.30;;
22628;SDS011;11481;53.694;9.910;2023-11-21T12:06:43;3.70;;;2.20;;
22628;SDS011;11481;53.694;9.910;2023-11-21T12:09:19;3.55;;;2.13;;
22628;SDS011;11481;53.694;9.910;2023-11-21T12:11:50;3.13;;;1.90;;
22628;SDS011;11481;53.694;9.910;2023-11-21T12:14:17;5.50;;;2.10;;
22628;SDS011;11481;53.694;9.910;2023-11-21T12:16:44;5.20;;;1.77;;
22628;SDS011;11481;53.694;9.910;2023-11-21T12:19:11;4.93;;;2.45;;
22628;SDS011;11481;53.694;9.910;2023-11-21T12:21:39;3.45;;;2.13;;
22628;SDS011;11481;53.694;9.910;2023-11-21T12:24:10;4.07;;;2.20;;
22628;SDS011;11481;53.694;9.910;2023-11-21T12:26:40;3.33;;;2.08;;
22628;SDS011;11481;53.694;9.910;2023-11-21T12:29:07;5.13;;;2.30;;
22628;SDS011;11481;53.694;9.910;2023-11-21T12:31:34;2.80;;;1.92;;
22628;SDS011;11481;53.694;9.910;2023-11-21T12:34:01;3.25;;;2.08;;
22628;SDS011;11481;53.694;9.910;2023-11-21T12:36:28;4.03;;;2.30;;
22628;SDS011;11481;53.694;9.910;2023-11-21T12:38:56;3.75;;;1.98;;
22628;SDS011;11481;53.694;9.910;2023-11-21T12:41:23;4.20;;;1.98;;
22628;SDS011;11481;53.694;9.910;2023-11-21T12:43:50;3.53;;;2.33;;
22628;SDS011;11481;53.694;9.910;2023-11-21T12:46:16;3.63;;;2.05;;
22628;SDS011;11481;53.694;9.910;2023-11-21T12:48:44;2.78;;;1.92;;
22628;SDS011;11481;53.694;9.910;2023-11-21T12:51:14;5.43;;;2.10;;
22628;SDS011;11481;53.694;9.910;2023-11-21T12:53:42;2.65;;;1.90;;
22628;SDS011;11481;53.694;9.910;2023-11-21T12:56:12;3.33;;;2.03;;
22628;SDS011;11481;53.694;9.910;2023-11-21T12:58:39;4.10;;;2.30;;
22628;SDS011;11481;53.694;9.910;2023-11-21T13:01:12;4.65;;;2.00;;
22628;SDS011;11481;53.694;9.910;2023-11-21T13:03:47;6.20;;;1.83;;
22628;SDS011;11481;53.694;9.910;2023-11-21T13:06:18;4.18;;;2.55;;
22628;SDS011;11481;53.694;9.910;2023-11-21T13:08:46;5.28;;;2.53;;
22628;SDS011;11481;53.694;9.910;2023-11-21T13:11:13;4.10;;;2.55;;
22628;SDS011;11481;53.694;9.910;2023-11-21T13:13:41;4.10;;;2.60;;
22628;SDS011;11481;53.694;9.910;2023-11-21T13:16:09;4.63;;;2.67;;
22628;SDS011;11481;53.694;9.910;2023-11-21T13:18:36;3.80;;;2.20;;
22628;SDS011;11481;53.694;9.910;2023-11-21T13:21:08;5.72;;;2.67;;
22628;SDS011;11481;53.694;9.910;2023-11-21T13:23:38;4.40;;;2.65;;
22628;SDS011;11481;53.694;9.910;2023-11-21T13:26:07;4.00;;;2.40;;
22628;SDS011;11481;53.694;9.910;2023-11-21T13:28:38;7.78;;;3.13;;
22628;SDS011;11481;53.694;9.910;2023-11-21T13:31:07;4.90;;;2.67;;
22628;SDS011;11481;53.694;9.910;2023-11-21T13:33:48;4.40;;;2.75;;
22628;SDS011;11481;53.694;9.910;2023-11-21T13:36:23;4.18;;;2.60;;
22628;SDS011;11481;53.694;9.910;2023-11-21T13:38:51;7.47;;;2.78;;
22628;SDS011;11481;53.694;9.910;2023-11-21T13:41:21;3.50;;;2.42;;
22628;SDS011;11481;53.694;9.910;2023-11-21T13:43:54;6.10;;;3.67;;
22628;SDS011;11481;53.694;9.910;2023-11-21T13:46:29;6.93;;;3.72;;
22628;SDS011;11481;53.694;9.910;2023-11-21T13:49:03;4.95;;;3.33;;
22628;SDS011;11481;53.694;9.910;2023-11-21T13:51:34;5.65;;;3.22;;
22628;SDS011;11481;53.694;9.910;2023-11-21T13:54:10;4.28;;;2.70;;
22628;SDS011;11481;53.694;9.910;2023-11-21T13:56:37;4.60;;;2.80;;
22628;SDS011;11481;53.694;9.910;2023-11-21T13:59:06;3.80;;;2.55;;
22628;SDS011;11481;53.694;9.910;2023-11-21T14:01:51;5.15;;;2.83;;
22628;SDS011;11481;53.694;9.910;2023-11-21T14:04:23;6.35;;;2.83;;
22628;SDS011;11481;53.694;9.910;2023-11-21T14:06:56;5.28;;;2.90;;
22628;SDS011;11481;53.694;9.910;2023-11-21T14:09:23;5.53;;;2.92;;
22628;SDS011;11481;53.694;9.910;2023-11-21T14:12:02;6.18;;;2.40;;
22628;SDS011;11481;53.694;9.910;2023-11-21T14:14:32;4.70;;;2.83;;
22628;SDS011;11481;53.694;9.910;2023-11-21T14:17:00;4.28;;;2.40;;
22628;SDS011;11481;53.694;9.910;2023-11-21T14:19:28;4.88;;;3.00;;
22628;SDS011;11481;53.694;9.910;2023-11-21T14:21:58;3.70;;;2.22;;
22628;SDS011;11481;53.694;9.910;2023-11-21T14:24:25;4.72;;;2.53;;
22628;SDS011;11481;53.694;9.910;2023-11-21T14:26:52;3.67;;;2.20;;
22628;SDS011;11481;53.694;9.910;2023-11-21T14:29:19;3.65;;;2.20;;
22628;SDS011;11481;53.694;9.910;2023-11-21T14:31:46;3.83;;;2.33;;
22628;SDS011;11481;53.694;9.910;2023-11-21T14:34:14;6.43;;;2.08;;
22628;SDS011;11481;53.694;9.910;2023-11-21T14:36:45;4.65;;;2.03;;
22628;SDS011;11481;53.694;9.910;2023-11-21T14:39:12;4.43;;;2.60;;
22628;SDS011;11481;53.694;9.910;2023-11-21T14:41:49;4.15;;;2.22;;
22628;SDS011;11481;53.694;9.910;2023-11-21T14:44:16;3.42;;;2.00;;
22628;SDS011;11481;53.694;9.910;2023-11-21T14:46:43;8.85;;;4.22;;
22628;SDS011;11481;53.694;9.910;2023-11-21T14:49:12;7.40;;;3.03;;
22628;SDS011;11481;53.694;9.910;2023-11-21T14:51:52;3.10;;;2.40;;
22628;SDS011;11481;53.694;9.910;2023-11-21T14:54:34;6.00;;;2.65;;
22628;SDS011;11481;53.694;9.910;2023-11-21T14:57:09;4.07;;;2.42;;
22628;SDS011;11481;53.694;9.910;2023-11-21T14:59:43;5.03;;;2.80;;
22628;SDS011;11481;53.694;9.910;2023-11-21T15:02:17;4.40;;;2.80;;